createdAt,value
2023-12-30T00:03:35.386Z,67.84
2023-12-30T00:07:35.469Z,61.38
2023-12-30T00:11:35.616Z,60.05
2023-12-30T00:15:35.690Z,54.84
2023-12-30T00:19:35.845Z,59.29
2023-12-30T00:23:41.028Z,53.82
2023-12-30T00:27:36.029Z,59.36
2023-12-30T00:31:36.197Z,54.24
2023-12-30T00:35:36.242Z,50.54
2023-12-30T00:39:36.366Z,60.38
2023-12-30T00:43:36.473Z,50.67
2023-12-30T00:47:36.696Z,49.91
2023-12-30T00:51:36.694Z,63.17
2023-12-30T00:55:36.841Z,60.45
2023-12-30T00:59:36.933Z,57.2
2023-12-30T01:03:37.035Z,61
2023-12-30T01:07:37.136Z,61.02
2023-12-30T01:11:37.248Z,63.4
2023-12-30T01:15:37.382Z,57.32
2023-12-30T01:19:37.493Z,61.38
2023-12-30T01:23:37.581Z,63.5
2023-12-30T01:27:37.749Z,54.96
2023-12-30T01:31:37.889Z,57.31
2023-12-30T01:35:37.942Z,67.41
2023-12-30T01:39:38.018Z,68.92
2023-12-30T01:43:38.566Z,58.98
2023-12-30T01:47:38.382Z,57.61
2023-12-30T01:51:38.392Z,55.59
2023-12-30T01:55:38.626Z,59.67
2023-12-30T01:59:38.611Z,59.81
2023-12-30T02:03:38.872Z,58.26
2023-12-30T02:07:38.823Z,52.92
2023-12-30T02:11:38.972Z,60.39
2023-12-30T02:15:39.102Z,62.73
2023-12-30T02:19:39.210Z,65.66
2023-12-30T02:23:39.296Z,63.15
2023-12-30T02:27:40.000Z,53.69
2023-12-30T02:31:39.595Z,67.21
2023-12-30T02:35:39.647Z,60.38
2023-12-30T02:39:39.749Z,66.31
2023-12-30T02:43:39.876Z,62.73
2023-12-30T02:47:40.072Z,61.67
2023-12-30T02:51:40.065Z,57.94
2023-12-30T02:55:40.233Z,62.39
2023-12-30T02:59:40.324Z,55.63
2023-12-30T03:03:40.454Z,58.91
2023-12-30T03:07:40.562Z,58.91
2023-12-30T03:11:40.682Z,64.53
2023-12-30T03:15:40.758Z,65.96
2023-12-30T03:19:40.927Z,69.29
2023-12-30T03:23:41.040Z,63.46
2023-12-30T03:27:41.110Z,68.52
2023-12-30T03:31:41.234Z,57.81
2023-12-30T03:35:41.345Z,63.33
2023-12-30T03:39:41.443Z,60.39
2023-12-30T03:43:41.628Z,68.56
2023-12-30T03:47:41.649Z,63.87
2023-12-30T03:51:41.793Z,63.8
2023-12-30T03:55:41.955Z,60.13
2023-12-30T03:59:42.035Z,65.62
2023-12-30T04:03:42.140Z,56.31
2023-12-30T04:07:42.260Z,55.45
2023-12-30T04:11:42.430Z,63.52
2023-12-30T04:15:42.479Z,56.69
2023-12-30T04:19:42.585Z,61.6
2023-12-30T04:23:42.684Z,68.19
2023-12-30T04:27:42.860Z,75.53
2023-12-30T04:31:42.902Z,64.22
2023-12-30T04:35:43.039Z,62.78
2023-12-30T04:39:43.117Z,68.09
2023-12-30T04:43:43.335Z,64.42
2023-12-30T04:47:43.422Z,60
2023-12-30T04:51:43.506Z,61.27
2023-12-30T04:55:43.576Z,61.38
2023-12-30T04:59:43.766Z,66.38
2023-12-30T05:03:43.843Z,68.55
2023-12-30T05:07:43.925Z,70.4
2023-12-30T05:11:44.064Z,66.71
2023-12-30T05:15:44.189Z,63.52
2023-12-30T05:19:44.316Z,65.22
2023-12-30T05:23:44.408Z,69.29
2023-12-30T05:27:44.511Z,68.2
2023-12-30T05:31:44.676Z,65.66
2023-12-30T05:35:44.726Z,71.16
2023-12-30T05:39:44.865Z,58.04
2023-12-30T05:43:45.083Z,69.99
2023-12-30T05:47:45.132Z,64.95
2023-12-30T05:51:45.185Z,67.06
2023-12-30T05:55:45.330Z,66.38
2023-12-30T05:59:45.378Z,60.1
2023-12-30T06:03:45.545Z,59.29
2023-12-30T06:07:45.708Z,62.81
2023-12-30T06:11:45.755Z,66.35
2023-12-30T06:15:45.851Z,68.79
2023-12-30T06:19:46.002Z,72.27
2023-12-30T06:23:46.052Z,65.96
2023-12-30T06:27:46.200Z,59.81
2023-12-30T06:31:46.376Z,65.57
2023-12-30T06:35:46.490Z,58.76
2023-12-30T06:39:46.541Z,58.13
2023-12-30T06:43:46.699Z,59.29
2023-12-30T06:47:46.865Z,60.22
2023-12-30T06:51:46.870Z,60.87
2023-12-30T06:55:48.542Z,67.41
2023-12-30T06:59:47.119Z,66.02
2023-12-30T07:03:47.264Z,64.08
2023-12-30T07:07:47.314Z,58.26
2023-12-30T07:11:47.521Z,62.44
2023-12-30T07:15:47.553Z,58.59
2023-12-30T07:19:47.788Z,62.05
2023-12-30T07:23:47.748Z,64.57
2023-12-30T07:27:47.845Z,53.75
2023-12-30T07:31:48.009Z,59.67
2023-12-30T07:35:48.165Z,60.13
2023-12-30T07:39:48.260Z,53.35
2023-12-30T07:43:48.346Z,68.56
2023-12-30T07:47:48.466Z,61.38
2023-12-30T07:51:48.645Z,55.59
2023-12-30T07:55:48.701Z,57.56
2023-12-30T07:59:48.784Z,57.73
2023-12-30T08:03:48.973Z,67.11
2023-12-30T08:07:49.118Z,63.4
2023-12-30T08:11:58.659Z,63.12
2023-12-30T08:12:02.818Z,63.12
2023-12-30T08:15:49.245Z,62.17
2023-12-30T08:19:49.459Z,59.4
2023-12-30T08:23:49.475Z,65.29
2023-12-30T08:27:49.567Z,65.22
2023-12-30T08:31:49.772Z,61.38
2023-12-30T08:35:49.809Z,68.52
2023-12-30T08:39:50.006Z,66.31
2023-12-30T08:43:50.090Z,66
2023-12-30T08:47:50.218Z,58.86
2023-12-30T08:51:50.246Z,63.84
2023-12-30T08:55:50.396Z,60.67
2023-12-30T08:59:50.529Z,63.46
2023-12-30T09:03:50.669Z,64.24
2023-12-30T09:07:50.741Z,58.67
2023-12-30T09:11:50.828Z,59.08
2023-12-30T09:15:50.917Z,54.96
2023-12-30T09:19:51.091Z,65.6
2023-12-30T09:23:51.166Z,61.6
2023-12-30T09:27:51.677Z,62
2023-12-30T09:31:51.476Z,64.57
2023-12-30T09:35:51.528Z,57.61
2023-12-30T09:39:51.628Z,60.73
2023-12-30T09:43:51.927Z,63.53
2023-12-30T09:47:51.950Z,63
2023-12-30T09:51:51.992Z,56.69
2023-12-30T09:55:52.091Z,59.81
2023-12-30T09:59:52.185Z,66.71
2023-12-30T10:03:52.302Z,70.71
2023-12-30T10:07:52.479Z,63.5
2023-12-30T10:11:52.566Z,61.6
2023-12-30T10:15:52.664Z,57.81
2023-12-30T10:19:52.753Z,51.06
2023-12-30T10:23:52.896Z,51.67
2023-12-30T10:27:53.024Z,62.67
2023-12-30T10:31:53.203Z,60.33
2023-12-30T10:35:53.192Z,55.53
2023-12-30T10:39:53.372Z,64.67
2023-12-30T10:43:53.442Z,64
2023-12-30T10:47:53.641Z,62.44
2023-12-30T10:51:53.651Z,64.24
2023-12-30T10:55:53.786Z,64
2023-12-30T10:59:53.912Z,67.83
2023-12-30T11:03:54.110Z,64.82
2023-12-30T11:07:54.094Z,58.53
2023-12-30T11:11:54.834Z,66.95
2023-12-30T11:15:54.446Z,64.95
2023-12-30T11:19:54.456Z,60
2023-12-30T11:23:54.605Z,62.45
2023-12-30T11:27:54.964Z,63.12
2023-12-30T11:31:54.814Z,57.41
2023-12-30T11:35:54.930Z,67.76
2023-12-30T11:39:55.103Z,62.92
2023-12-30T11:43:55.155Z,62.73
2023-12-30T11:47:55.396Z,62.73
2023-12-30T11:51:55.432Z,53.4
2023-12-30T11:55:55.524Z,63.07
2023-12-30T11:59:55.670Z,63.4
2023-12-30T12:03:55.817Z,60.61
2023-12-30T12:07:55.791Z,65.16
2023-12-30T12:11:55.918Z,58.45
2023-12-30T12:15:56.111Z,59.29
2023-12-30T12:19:56.220Z,55.86
2023-12-30T12:23:56.295Z,71.15
2023-12-30T12:27:56.428Z,61.72
2023-12-30T12:31:56.532Z,65.91
2023-12-30T12:35:56.614Z,60
2023-12-30T12:39:56.783Z,58.2
2023-12-30T12:43:56.846Z,61.93
2023-12-30T12:47:57.079Z,67.36
2023-12-30T12:51:57.082Z,59.24
2023-12-30T12:55:57.186Z,64.92
2023-12-30T12:59:57.307Z,59.67
2023-12-30T13:03:57.542Z,66.31
2023-12-30T13:07:57.616Z,61.72
2023-12-30T13:11:57.821Z,53.69
2023-12-30T13:15:57.770Z,51.95
2023-12-30T13:19:58.036Z,57.94
2023-12-30T13:23:58.014Z,58.26
2023-12-30T13:27:58.117Z,55.15
2023-12-30T13:31:58.228Z,56.18
2023-12-30T13:35:58.308Z,60.13
2023-12-30T13:39:58.587Z,54.35
2023-12-30T13:43:58.613Z,53.22
2023-12-30T13:47:58.712Z,56.6
2023-12-30T13:51:58.727Z,56
2023-12-30T13:55:58.892Z,58.31
2023-12-30T13:59:58.960Z,52.82
2023-12-30T14:03:59.134Z,56.33
2023-12-30T14:07:59.216Z,54.65
2023-12-30T14:11:59.344Z,51.86
2023-12-30T14:15:59.452Z,54.45
2023-12-30T14:19:59.629Z,52.24
2023-12-30T14:23:59.695Z,49.69
2023-12-30T14:27:59.812Z,52.36
2023-12-30T14:31:59.920Z,53.15
2023-12-30T14:36:00.003Z,56.47
2023-12-30T14:40:00.252Z,55.15
2023-12-30T14:44:00.251Z,53.15
2023-12-30T14:48:00.452Z,50.73
2023-12-30T14:52:00.587Z,50.49
2023-12-30T14:56:00.571Z,51.23
2023-12-30T15:00:00.711Z,50.71
2023-12-30T15:04:00.946Z,49.52
2023-12-30T15:08:00.990Z,49.84
2023-12-30T15:12:01.036Z,49.69
2023-12-30T15:16:01.153Z,49.95
2023-12-30T15:20:01.709Z,52.61
2023-12-30T15:24:01.379Z,51.51
2023-12-30T15:28:01.517Z,50.47
2023-12-30T15:32:01.704Z,52.06
2023-12-30T15:36:01.766Z,51.76
2023-12-30T15:40:01.852Z,53.22
2023-12-30T15:44:02.002Z,49.98
2023-12-30T15:48:02.171Z,50.54
2023-12-30T15:52:02.253Z,50.38
2023-12-30T15:56:02.348Z,51.47
2023-12-30T16:00:02.502Z,53.22
2023-12-30T16:04:02.581Z,51.45
2023-12-30T16:08:02.642Z,54.9
2023-12-30T16:12:02.738Z,54.68
2023-12-30T16:16:02.852Z,52
2023-12-30T16:20:03.012Z,49.96
2023-12-30T16:24:03.043Z,50.09
2023-12-30T16:28:03.238Z,55.67
2023-12-30T16:32:03.385Z,52.05
2023-12-30T16:36:03.408Z,50.4
2023-12-30T16:40:03.544Z,52.67
2023-12-30T16:44:03.624Z,64.24
2023-12-30T16:48:03.831Z,49.91
2023-12-30T16:52:03.959Z,50.93
2023-12-30T16:56:03.985Z,50.22
2023-12-30T17:00:04.097Z,60.14
2023-12-30T17:04:04.190Z,61.22
2023-12-30T17:08:04.330Z,49.56
2023-12-30T17:12:04.412Z,49.87
2023-12-30T17:16:04.564Z,52.24
2023-12-30T17:20:04.669Z,51.07
2023-12-30T17:24:04.768Z,52.98
2023-12-30T17:28:04.938Z,59.69
2023-12-30T17:32:04.990Z,54.67
2023-12-30T17:36:05.162Z,50.96
2023-12-30T17:40:05.342Z,49.18
2023-12-30T17:44:05.712Z,49.41
2023-12-30T17:48:05.426Z,51.24
2023-12-30T17:52:05.549Z,49.95
2023-12-30T17:56:05.677Z,51.76
2023-12-30T18:00:05.766Z,51.69
2023-12-30T18:04:05.958Z,53.24
2023-12-30T18:08:05.991Z,55.15
2023-12-30T18:12:06.125Z,55.91
2023-12-30T18:16:06.254Z,55.18
2023-12-30T18:20:06.386Z,54.13
2023-12-30T18:24:06.453Z,56.03
2023-12-30T18:28:06.580Z,53.95
2023-12-30T18:32:06.693Z,53.69
2023-12-30T18:36:06.778Z,59.26
2023-12-30T18:40:06.947Z,49.96
2023-12-30T18:44:07.038Z,49.6
2023-12-30T18:48:07.178Z,48.92
2023-12-30T18:52:07.260Z,51.39
2023-12-30T18:56:07.358Z,50.97
2023-12-30T19:00:07.488Z,51.33
2023-12-30T19:04:07.722Z,50.78
2023-12-30T19:08:07.753Z,51.36
2023-12-30T19:12:07.797Z,60.38
2023-12-30T19:16:07.992Z,56.33
2023-12-30T19:20:08.040Z,65.55
2023-12-30T19:24:08.207Z,49.69
2023-12-30T19:28:08.317Z,48.69
2023-12-30T19:32:08.528Z,50.95
2023-12-30T19:36:08.503Z,57.61
2023-12-30T19:40:08.650Z,50.2
2023-12-30T19:44:08.831Z,49.84
2023-12-30T19:48:08.948Z,55.95
2023-12-30T19:52:09.003Z,51.56
2023-12-30T19:56:09.086Z,57.33
2023-12-30T20:00:09.166Z,51.33
2023-12-30T20:04:09.351Z,50.51
2023-12-30T20:08:09.440Z,49.69
2023-12-30T20:12:09.539Z,55.59
2023-12-30T20:16:09.608Z,50.5
2023-12-30T20:20:09.718Z,49.07
2023-12-30T20:24:09.852Z,52.54
2023-12-30T20:28:10.017Z,49.6
2023-12-30T20:32:10.089Z,52.35
2023-12-30T20:36:10.184Z,49.6
2023-12-30T20:40:10.337Z,48.66
2023-12-30T20:44:10.410Z,49.13
2023-12-30T20:48:10.553Z,49.66
2023-12-30T20:52:10.649Z,49.4
2023-12-30T20:56:10.752Z,48.14
2023-12-30T21:00:10.871Z,47.9
2023-12-30T21:04:11.030Z,49.71
2023-12-30T21:08:11.092Z,50.87
2023-12-30T21:12:11.205Z,49.91
2023-12-30T21:16:11.355Z,49.19
2023-12-30T21:20:11.730Z,52.53
2023-12-30T21:24:11.507Z,52.24
2023-12-30T21:28:11.725Z,53.29
2023-12-30T21:32:11.764Z,53.6
2023-12-30T21:36:13.273Z,50.12
2023-12-30T21:40:12.078Z,54.99
2023-12-30T21:44:12.089Z,58.07
2023-12-30T21:48:12.254Z,49.45
2023-12-30T21:52:12.436Z,56.92
2023-12-30T21:56:12.459Z,55.65
2023-12-30T22:00:12.573Z,62.67
2023-12-30T22:04:12.707Z,59.02
2023-12-30T22:08:12.788Z,69.02
2023-12-30T22:12:12.880Z,47.47
2023-12-30T22:16:13.045Z,48.17
2023-12-30T22:20:13.160Z,62.59
2023-12-30T22:24:13.268Z,50.2
2023-12-30T22:28:13.388Z,52.9
2023-12-30T22:32:13.460Z,52.42
2023-12-30T22:36:13.629Z,49.25
2023-12-30T22:40:13.693Z,46.94
2023-12-30T22:44:13.828Z,45.21
2023-12-30T22:48:13.951Z,44.94
2023-12-30T22:52:14.123Z,47.76
2023-12-30T22:56:14.141Z,48
2023-12-30T23:00:14.390Z,45.41
2023-12-30T23:04:14.648Z,45.63
2023-12-30T23:08:14.478Z,49.55
2023-12-30T23:12:14.638Z,46.81
2023-12-30T23:16:14.732Z,47.29
2023-12-30T23:20:14.839Z,50.26
2023-12-30T23:24:14.956Z,48.67
2023-12-30T23:28:15.080Z,46.2
2023-12-30T23:32:15.167Z,45.81
2023-12-30T23:36:15.306Z,44.96
2023-12-30T23:40:15.429Z,46.04
2023-12-30T23:44:15.571Z,45.95
2023-12-30T23:48:15.755Z,46.9
2023-12-30T23:52:15.744Z,46.41
2023-12-30T23:56:15.839Z,45.65
